createdAt,value
2023-03-19T00:00:56.928Z,95789.19
2023-03-19T00:02:12.223Z,95786.72
2023-03-19T00:03:21.631Z,95785.13
2023-03-19T00:04:24.501Z,95781.78
2023-03-19T00:05:32.089Z,95780.94
2023-03-19T00:06:34.558Z,95785.97
2023-03-19T00:07:39.203Z,95784.22
2023-03-19T00:08:42.091Z,95784.34
2023-03-19T00:09:48.471Z,95780.84
2023-03-19T00:10:51.108Z,95786.13
2023-03-19T00:11:55.993Z,95780.16
2023-03-19T00:12:58.058Z,95784.34
2023-03-19T00:14:02.670Z,95783.56
2023-03-19T00:15:07.646Z,95790.59
2023-03-19T00:16:12.594Z,95787.22
2023-03-19T00:17:14.743Z,95785.63
2023-03-19T00:18:19.340Z,95789.75
2023-03-19T00:19:21.639Z,95789.88
2023-03-19T00:20:26.304Z,95780.41
2023-03-19T00:21:32.325Z,95791.56
2023-03-19T00:22:37.247Z,95794.19
2023-03-19T00:23:39.426Z,95781.25
2023-03-19T00:24:44.744Z,95787.09
2023-03-19T00:25:46.705Z,95794.13
2023-03-19T00:26:51.366Z,95788.97
2023-03-19T00:27:55.215Z,95795.91
2023-03-19T00:29:00.669Z,95797.72
2023-03-19T00:30:02.742Z,95785.75
2023-03-19T00:31:12.374Z,95790.91
2023-03-19T00:32:14.726Z,95796.06
2023-03-19T00:33:20.254Z,95790.13
2023-03-19T00:34:23.164Z,95790.25
2023-03-19T00:35:27.942Z,95792.69
2023-03-19T00:36:32.943Z,95796.19
2023-03-19T00:37:38.637Z,95794.38
2023-03-19T00:38:40.651Z,95796.06
2023-03-19T00:39:45.282Z,95796.84
2023-03-19T00:40:48.637Z,95797.72
2023-03-19T00:41:53.636Z,95797.72
2023-03-19T00:42:55.920Z,95798.56
2023-03-19T00:44:01.569Z,95794.25
2023-03-19T00:45:04.335Z,95800.19
2023-03-19T00:46:09.621Z,95792.34
2023-03-19T00:47:12.522Z,95798.19
2023-03-19T00:48:17.262Z,95799.72
2023-03-19T00:49:19.364Z,95793.63
2023-03-19T00:50:25.113Z,95794.34
2023-03-19T00:51:27.175Z,95796.72
2023-03-19T00:52:34.785Z,95799.03
2023-03-19T00:53:38.578Z,95799.81
2023-03-19T00:54:43.361Z,95798.84
2023-03-19T00:55:46.425Z,95799.69
2023-03-19T00:56:51.011Z,95807.41
2023-03-19T00:57:53.304Z,95810.00
2023-03-19T00:58:59.632Z,95808.31
2023-03-19T01:00:01.809Z,95806.53
2023-03-19T01:01:06.789Z,95803.09
2023-03-19T01:02:08.860Z,95801.28
2023-03-19T01:03:13.601Z,95809.03
2023-03-19T01:04:15.717Z,95807.22
2023-03-19T01:05:20.599Z,95806.31
2023-03-19T01:06:22.748Z,95806.28
2023-03-19T01:07:27.499Z,95809.72
2023-03-19T01:08:32.118Z,95812.25
2023-03-19T01:09:37.203Z,95811.28
2023-03-19T01:10:39.197Z,95812.13
2023-03-19T01:11:44.106Z,95807.81
2023-03-19T01:12:46.136Z,95814.66
2023-03-19T01:13:51.417Z,95810.31
2023-03-19T01:14:53.451Z,95808.53
2023-03-19T01:15:58.111Z,95814.38
2023-03-19T01:17:00.864Z,95806.56
2023-03-19T01:18:05.580Z,95808.13
2023-03-19T01:19:07.670Z,95815.69
2023-03-19T01:20:18.816Z,95813.00
2023-03-19T01:21:21.444Z,95805.88
2023-03-19T01:22:26.286Z,95806.66
2023-03-19T01:23:28.633Z,95809.88
2023-03-19T01:24:36.277Z,95806.25
2023-03-19T01:25:39.721Z,95801.88
2023-03-19T01:26:44.661Z,95805.28
2023-03-19T01:27:47.351Z,95807.81
2023-03-19T01:28:52.579Z,95809.47
2023-03-19T01:29:54.612Z,95811.16
2023-03-19T01:31:02.982Z,95805.09
2023-03-19T01:32:06.180Z,95808.56
2023-03-19T01:33:10.859Z,95807.56
2023-03-19T01:34:12.948Z,95808.31
2023-03-19T01:35:17.606Z,95813.59
2023-03-19T01:36:19.691Z,95812.75
2023-03-19T01:37:24.808Z,95815.41
2023-03-19T01:38:27.571Z,95809.41
2023-03-19T01:39:32.216Z,95805.09
2023-03-19T01:40:37.643Z,95811.91
2023-03-19T01:41:42.297Z,95814.28
2023-03-19T01:42:55.566Z,95813.38
2023-03-19T01:44:00.218Z,95812.63
2023-03-19T01:45:03.555Z,95811.84
2023-03-19T01:46:14.696Z,95806.59
2023-03-19T01:47:19.734Z,95814.22
2023-03-19T01:48:30.890Z,95813.38
2023-03-19T01:49:33.524Z,95803.88
2023-03-19T01:50:43.250Z,95804.75
2023-03-19T01:51:50.040Z,95805.50
2023-03-19T01:52:52.426Z,95808.84
2023-03-19T01:54:01.431Z,95808.94
2023-03-19T01:55:07.479Z,95809.69
2023-03-19T01:56:18.379Z,95805.44
2023-03-19T01:57:22.498Z,95810.53
2023-03-19T01:58:27.635Z,95808.81
2023-03-19T01:59:33.284Z,95812.28
2023-03-19T02:00:39.205Z,95804.59
2023-03-19T02:01:51.471Z,95806.13
2023-03-19T02:02:59.987Z,95817.28
2023-03-19T02:04:02.055Z,95815.50
2023-03-19T02:05:10.836Z,95812.03
2023-03-19T02:06:14.463Z,95813.69
2023-03-19T02:07:20.164Z,95819.69
2023-03-19T02:08:23.939Z,95822.34
2023-03-19T02:09:30.326Z,95825.91
2023-03-19T02:10:33.043Z,95826.78
2023-03-19T02:11:41.227Z,95820.78
2023-03-19T02:12:43.349Z,95827.38
2023-03-19T02:13:48.244Z,95828.91
2023-03-19T02:14:50.365Z,95825.41
2023-03-19T02:15:55.265Z,95831.97
2023-03-19T02:16:57.385Z,95831.53
2023-03-19T02:18:02.189Z,95830.44
2023-03-19T02:19:05.473Z,95831.59
2023-03-19T02:20:14.797Z,95835.88
2023-03-19T02:21:18.241Z,95837.41
2023-03-19T02:22:25.665Z,95836.38
2023-03-19T02:23:35.929Z,95844.66
2023-03-19T02:24:47.826Z,95835.16
2023-03-19T02:26:00.745Z,95838.50
2023-03-19T02:27:05.816Z,95843.41
2023-03-19T02:28:09.896Z,95843.19
2023-03-19T02:29:14.885Z,95845.47
2023-03-19T02:30:23.173Z,95839.13
2023-03-19T02:31:28.171Z,95842.25
2023-03-19T02:32:30.320Z,95843.16
2023-03-19T02:33:35.071Z,95843.47
2023-03-19T02:34:39.653Z,95842.34
2023-03-19T02:35:45.514Z,95844.00
2023-03-19T02:36:52.223Z,95844.53
2023-03-19T02:37:56.977Z,95842.72
2023-03-19T02:39:03.037Z,95842.88
2023-03-19T02:40:11.957Z,95842.19
2023-03-19T02:41:16.744Z,95849.13
2023-03-19T02:42:24.436Z,95845.81
2023-03-19T02:43:27.000Z,95838.31
2023-03-19T02:44:31.617Z,95842.78
2023-03-19T02:45:33.688Z,95846.34
2023-03-19T02:46:38.400Z,95847.41
2023-03-19T02:47:41.027Z,95847.56
2023-03-19T02:48:45.629Z,95839.72
2023-03-19T02:49:47.636Z,95850.06
2023-03-19T02:50:52.340Z,95846.72
2023-03-19T02:51:54.465Z,95850.06
2023-03-19T02:52:59.134Z,95846.59
2023-03-19T02:54:01.195Z,95854.25
2023-03-19T02:55:06.600Z,95852.59
2023-03-19T02:56:09.032Z,95855.94
2023-03-19T02:57:16.586Z,95856.00
2023-03-19T02:58:18.811Z,95855.94
2023-03-19T02:59:23.911Z,95851.59
2023-03-19T03:00:26.542Z,95861.16
2023-03-19T03:01:31.219Z,95856.25
2023-03-19T03:02:33.550Z,95863.84
2023-03-19T03:03:38.333Z,95855.38
2023-03-19T03:04:40.325Z,95865.81
2023-03-19T03:05:44.912Z,95864.09
2023-03-19T03:06:46.930Z,95860.69
2023-03-19T03:07:51.646Z,95863.28
2023-03-19T03:08:53.650Z,95860.53
2023-03-19T03:09:58.353Z,95864.88
2023-03-19T03:11:00.520Z,95875.91
2023-03-19T03:12:07.324Z,95875.63
2023-03-19T03:13:11.906Z,95878.97
2023-03-19T03:14:16.675Z,95881.56
2023-03-19T03:15:19.119Z,95875.50
2023-03-19T03:16:24.356Z,95880.56
2023-03-19T03:17:27.129Z,95874.50
2023-03-19T03:18:31.856Z,95879.59
2023-03-19T03:19:34.006Z,95878.81
2023-03-19T03:20:38.644Z,95884.69
2023-03-19T03:21:41.337Z,95887.34
2023-03-19T03:22:46.905Z,95893.50
2023-03-19T03:23:49.100Z,95886.72
2023-03-19T03:24:53.689Z,95880.81
2023-03-19T03:25:55.777Z,95886.66
2023-03-19T03:27:00.491Z,95890.38
2023-03-19T03:28:02.543Z,95888.63
2023-03-19T03:29:10.253Z,95892.97
2023-03-19T03:30:13.086Z,95892.03
2023-03-19T03:31:17.826Z,95891.97
2023-03-19T03:32:19.873Z,95898.91
2023-03-19T03:33:25.483Z,95890.16
2023-03-19T03:34:27.503Z,95898.75
2023-03-19T03:35:32.646Z,95886.56
2023-03-19T03:36:34.730Z,95897.06
2023-03-19T03:37:40.016Z,95902.19
2023-03-19T03:38:42.030Z,95899.78
2023-03-19T03:39:46.633Z,95900.63
2023-03-19T03:40:51.238Z,95901.50
2023-03-19T03:41:55.993Z,95899.13
2023-03-19T03:42:58.018Z,95905.06
2023-03-19T03:44:02.669Z,95910.38
2023-03-19T03:45:09.707Z,95902.66
2023-03-19T03:46:14.853Z,95902.03
2023-03-19T03:47:17.995Z,95903.03
2023-03-19T03:48:22.700Z,95910.03
2023-03-19T03:49:24.736Z,95911.84
2023-03-19T03:50:29.658Z,95911.84
2023-03-19T03:51:31.928Z,95911.00
2023-03-19T03:52:37.043Z,95908.47
2023-03-19T03:53:39.104Z,95899.84
2023-03-19T03:54:43.720Z,95905.91
2023-03-19T03:55:45.881Z,95903.47
2023-03-19T03:56:50.818Z,95906.97
2023-03-19T03:57:52.803Z,95918.28
2023-03-19T03:58:57.695Z,95917.44
2023-03-19T03:59:59.722Z,95918.31
2023-03-19T04:01:07.207Z,95921.06
2023-03-19T04:02:09.573Z,95922.75
2023-03-19T04:03:14.444Z,95921.19
2023-03-19T04:04:16.871Z,95922.31
2023-03-19T04:05:21.994Z,95924.34
2023-03-19T04:06:25.772Z,95927.97
2023-03-19T04:07:30.418Z,95931.50
2023-03-19T04:08:32.493Z,95929.00
2023-03-19T04:09:37.745Z,95926.56
2023-03-19T04:10:40.804Z,95931.88
2023-03-19T04:11:45.710Z,95936.25
2023-03-19T04:12:47.757Z,95929.47
2023-03-19T04:13:52.432Z,95932.13
2023-03-19T04:14:54.444Z,95936.53
2023-03-19T04:15:59.099Z,95930.66
2023-03-19T04:17:05.240Z,95933.31
2023-03-19T04:18:09.905Z,95931.69
2023-03-19T04:19:11.959Z,95934.34
2023-03-19T04:20:18.732Z,95930.09
2023-03-19T04:21:21.390Z,95937.97
2023-03-19T04:22:26.083Z,95935.19
2023-03-19T04:23:28.554Z,95935.31
2023-03-19T04:24:33.347Z,95936.22
2023-03-19T04:25:35.410Z,95935.53
2023-03-19T04:26:40.091Z,95944.22
2023-03-19T04:27:42.183Z,95937.59
2023-03-19T04:28:47.184Z,95937.50
2023-03-19T04:29:49.267Z,95934.22
2023-03-19T04:30:53.903Z,95934.22
2023-03-19T04:31:55.932Z,95937.72
2023-03-19T04:33:03.624Z,95928.78
2023-03-19T04:34:06.108Z,95937.44
2023-03-19T04:35:12.151Z,95929.72
2023-03-19T04:36:14.186Z,95928.78
2023-03-19T04:37:19.002Z,95926.22
2023-03-19T04:38:21.215Z,95931.47
2023-03-19T04:39:26.088Z,95921.19
2023-03-19T04:40:28.224Z,95922.03
2023-03-19T04:41:32.808Z,95915.00
2023-03-19T04:42:34.799Z,95911.78
2023-03-19T04:43:39.377Z,95919.44
2023-03-19T04:44:42.233Z,95911.63
2023-03-19T04:45:46.876Z,95913.56
2023-03-19T04:46:48.952Z,95912.03
2023-03-19T04:47:54.198Z,95916.47
2023-03-19T04:48:59.954Z,95917.22
2023-03-19T04:50:04.667Z,95913.84
2023-03-19T04:51:08.718Z,95907.13
2023-03-19T04:52:14.062Z,95912.38
2023-03-19T04:53:16.019Z,95908.81
2023-03-19T04:54:20.860Z,95914.13
2023-03-19T04:55:23.763Z,95906.50
2023-03-19T04:56:28.743Z,95906.63
2023-03-19T04:57:30.897Z,95910.09
2023-03-19T04:58:35.869Z,95912.69
2023-03-19T04:59:37.875Z,95916.19
2023-03-19T05:00:42.487Z,95915.34
2023-03-19T05:01:44.878Z,95918.88
2023-03-19T05:02:49.949Z,95916.44
2023-03-19T05:03:52.338Z,95914.75
2023-03-19T05:04:59.632Z,95914.00
2023-03-19T05:06:01.630Z,95917.41
2023-03-19T05:07:06.431Z,95917.44
2023-03-19T05:08:09.013Z,95920.13
2023-03-19T05:09:13.966Z,95915.00
2023-03-19T05:10:16.163Z,95913.34
2023-03-19T05:11:21.449Z,95921.84
2023-03-19T05:12:23.510Z,95915.78
2023-03-19T05:13:28.326Z,95915.78
2023-03-19T05:14:30.589Z,95916.66
2023-03-19T05:15:35.217Z,95920.94
2023-03-19T05:16:37.321Z,95920.94
2023-03-19T05:17:43.016Z,95924.38
2023-03-19T05:18:45.104Z,95923.53
2023-03-19T05:19:49.962Z,95922.69
2023-03-19T05:20:55.455Z,95933.00
2023-03-19T05:22:00.387Z,95927.84
2023-03-19T05:23:02.973Z,95926.16
2023-03-19T05:24:08.054Z,95933.00
2023-03-19T05:25:10.212Z,95927.84
2023-03-19T05:26:16.065Z,95926.94
2023-03-19T05:27:18.996Z,95929.47
2023-03-19T05:28:23.605Z,95929.47
2023-03-19T05:29:26.752Z,95931.13
2023-03-19T05:30:31.888Z,95930.22
2023-03-19T05:31:34.026Z,95928.56
2023-03-19T05:32:38.753Z,95938.75
2023-03-19T05:33:40.963Z,95937.13
2023-03-19T05:34:45.684Z,95932.09
2023-03-19T05:35:47.706Z,95942.38
2023-03-19T05:36:54.943Z,95938.94
2023-03-19T05:37:57.192Z,95939.56
2023-03-19T05:39:02.153Z,95944.59
2023-03-19T05:40:05.419Z,95940.28
2023-03-19T05:41:11.075Z,95948.81
2023-03-19T05:42:14.930Z,95943.38
2023-03-19T05:43:19.609Z,95947.41
2023-03-19T05:44:21.709Z,95948.19
2023-03-19T05:45:26.329Z,95955.97
2023-03-19T05:46:28.511Z,95950.91
2023-03-19T05:47:34.298Z,95962.81
2023-03-19T05:48:36.388Z,95959.47
2023-03-19T05:49:41.484Z,95954.31
2023-03-19T05:50:43.596Z,95952.59
2023-03-19T05:51:48.289Z,95953.47
2023-03-19T05:52:55.633Z,95961.09
2023-03-19T05:53:57.702Z,95957.63
2023-03-19T05:55:02.334Z,95960.16
2023-03-19T05:56:05.242Z,95960.94
2023-03-19T05:57:10.088Z,95966.91
2023-03-19T05:58:12.215Z,95965.06
2023-03-19T05:59:16.897Z,95967.59
2023-03-19T06:00:20.202Z,95970.09
2023-03-19T06:01:24.969Z,95962.16
2023-03-19T06:02:27.322Z,95975.03
2023-03-19T06:03:32.698Z,95972.44
2023-03-19T06:04:34.785Z,95973.19
2023-03-19T06:05:39.700Z,95976.56
2023-03-19T06:06:42.392Z,95985.09
2023-03-19T06:07:47.024Z,95979.78
2023-03-19T06:08:54.421Z,95979.84
2023-03-19T06:09:56.551Z,95984.94
2023-03-19T06:11:01.335Z,95986.47
2023-03-19T06:12:04.137Z,95994.19
2023-03-19T06:13:08.768Z,95996.69
2023-03-19T06:14:10.874Z,95990.53
2023-03-19T06:15:15.499Z,95991.28
2023-03-19T06:16:17.556Z,95990.28
2023-03-19T06:17:22.635Z,95994.47
2023-03-19T06:18:24.856Z,95990.91
2023-03-19T06:19:29.557Z,95994.28
2023-03-19T06:20:32.390Z,95987.22
2023-03-19T06:21:37.751Z,95994.84
2023-03-19T06:22:40.727Z,95987.97
2023-03-19T06:23:45.358Z,95997.28
2023-03-19T06:24:52.638Z,95990.31
2023-03-19T06:25:54.828Z,95988.50
2023-03-19T06:26:59.534Z,95993.53
2023-03-19T06:28:01.620Z,95995.22
2023-03-19T06:29:06.809Z,95989.94
2023-03-19T06:30:10.390Z,95990.69
2023-03-19T06:31:15.105Z,95994.88
2023-03-19T06:32:17.431Z,95994.81
2023-03-19T06:33:22.164Z,95993.00
2023-03-19T06:34:24.342Z,95991.19
2023-03-19T06:35:29.252Z,95995.38
2023-03-19T06:36:31.917Z,95992.75
2023-03-19T06:37:36.631Z,95996.06
2023-03-19T06:38:38.648Z,95991.63
2023-03-19T06:39:43.517Z,95992.78
2023-03-19T06:40:48.567Z,95997.00
2023-03-19T06:41:53.282Z,95997.78
2023-03-19T06:42:55.377Z,95995.03
2023-03-19T06:44:00.290Z,96002.66
2023-03-19T06:45:02.669Z,96001.97
2023-03-19T06:46:10.830Z,95996.00
2023-03-19T06:47:14.372Z,95999.44
2023-03-19T06:48:19.034Z,96000.13
2023-03-19T06:49:22.012Z,95994.13
2023-03-19T06:50:26.671Z,95998.25
2023-03-19T06:51:28.802Z,95993.09
2023-03-19T06:52:33.420Z,96002.50
2023-03-19T06:53:35.623Z,96002.38
2023-03-19T06:54:40.211Z,95994.56
2023-03-19T06:55:42.582Z,95993.59
2023-03-19T06:56:49.894Z,95996.88
2023-03-19T06:57:52.010Z,95997.34
2023-03-19T06:58:56.624Z,95992.72
2023-03-19T06:59:58.621Z,95996.22
2023-03-19T07:01:03.271Z,95993.56
2023-03-19T07:02:05.656Z,95992.66
2023-03-19T07:03:10.528Z,95998.66
2023-03-19T07:04:15.262Z,95997.59
2023-03-19T07:05:17.337Z,96008.66
2023-03-19T07:06:22.005Z,96002.50
2023-03-19T07:07:24.104Z,95997.19
2023-03-19T07:08:30.018Z,95990.19
2023-03-19T07:09:32.399Z,95995.19
2023-03-19T07:10:37.361Z,95996.75
2023-03-19T07:11:39.465Z,96000.78
2023-03-19T07:12:46.748Z,95994.19
2023-03-19T07:13:48.873Z,96003.50
2023-03-19T07:14:53.550Z,96003.09
2023-03-19T07:15:55.595Z,96001.22
2023-03-19T07:17:00.214Z,96003.53
2023-03-19T07:18:05.185Z,96005.81
2023-03-19T07:19:07.379Z,96000.25
2023-03-19T07:20:14.168Z,95998.31
2023-03-19T07:21:19.015Z,96000.66
2023-03-19T07:22:21.847Z,96001.06
2023-03-19T07:23:26.453Z,96009.19
2023-03-19T07:24:31.089Z,96010.44
2023-03-19T07:25:33.228Z,96007.97
2023-03-19T07:26:37.980Z,96012.75
2023-03-19T07:27:40.019Z,96007.13
2023-03-19T07:28:47.459Z,96006.22
2023-03-19T07:29:49.514Z,96011.31
2023-03-19T07:30:55.049Z,96017.13
2023-03-19T07:31:57.708Z,96016.97
2023-03-19T07:33:02.358Z,96018.63
2023-03-19T07:34:04.518Z,96025.84
2023-03-19T07:35:11.662Z,96012.22
2023-03-19T07:36:13.768Z,96014.50
2023-03-19T07:37:20.706Z,96015.72
2023-03-19T07:38:24.630Z,96020.41
2023-03-19T07:39:29.250Z,96019.19
2023-03-19T07:40:31.624Z,96016.50
2023-03-19T07:41:36.400Z,96019.66
2023-03-19T07:42:38.715Z,96015.72
2023-03-19T07:43:43.349Z,96021.09
2023-03-19T07:44:48.024Z,96023.22
2023-03-19T07:45:52.835Z,96023.72
2023-03-19T07:46:54.999Z,96024.81
2023-03-19T07:48:03.458Z,96021.69
2023-03-19T07:49:08.380Z,96015.69
2023-03-19T07:50:14.211Z,96015.09
2023-03-19T07:51:16.186Z,96019.69
2023-03-19T07:52:21.808Z,96024.38
2023-03-19T07:53:23.913Z,96016.91
2023-03-19T07:54:28.516Z,96017.25
2023-03-19T07:55:30.906Z,96010.75
2023-03-19T07:56:36.297Z,96008.56
2023-03-19T07:57:39.360Z,96011.47
2023-03-19T07:58:43.968Z,96010.19
2023-03-19T07:59:48.819Z,96014.19
2023-03-19T08:00:53.451Z,96014.75
2023-03-19T08:01:55.485Z,96011.50
2023-03-19T08:03:00.227Z,96007.34
2023-03-19T08:04:04.921Z,96008.38
2023-03-19T08:05:08.103Z,96011.53
2023-03-19T08:06:13.337Z,96006.81
2023-03-19T08:07:18.030Z,96013.41
2023-03-19T08:08:23.094Z,96011.34
2023-03-19T08:09:28.121Z,96011.63
2023-03-19T08:10:30.197Z,96014.97
2023-03-19T08:11:34.876Z,96010.81
2023-03-19T08:12:41.150Z,96015.72
2023-03-19T08:13:45.815Z,96014.50
2023-03-19T08:14:50.532Z,96016.66
2023-03-19T08:15:56.489Z,96013.88
2023-03-19T08:16:58.629Z,96006.63
2023-03-19T08:18:05.152Z,96007.34
2023-03-19T08:19:09.954Z,96015.53
2023-03-19T08:20:16.886Z,96004.75
2023-03-19T08:21:19.228Z,96014.97
2023-03-19T08:22:23.881Z,96011.81
2023-03-19T08:23:28.582Z,96015.88
2023-03-19T08:24:30.976Z,96011.13
2023-03-19T08:25:36.001Z,96005.41
2023-03-19T08:26:38.056Z,96016.53
2023-03-19T08:27:42.835Z,96014.94
2023-03-19T08:28:44.962Z,96010.47
2023-03-19T08:29:52.195Z,96010.16
2023-03-19T08:30:55.991Z,96011.53
2023-03-19T08:32:01.389Z,96017.75
2023-03-19T08:33:06.948Z,96019.06
2023-03-19T08:34:12.060Z,96015.34
2023-03-19T08:35:14.304Z,96013.63
2023-03-19T08:36:19.350Z,96021.78
2023-03-19T08:37:21.439Z,96018.59
2023-03-19T08:38:26.150Z,96020.91
2023-03-19T08:39:30.898Z,96017.28
2023-03-19T08:40:36.608Z,96019.78
2023-03-19T08:41:38.941Z,96017.28
2023-03-19T08:42:45.321Z,96016.19
2023-03-19T08:43:47.976Z,96008.94
2023-03-19T08:44:55.321Z,96009.28
2023-03-19T08:45:57.447Z,96019.50
2023-03-19T08:47:02.128Z,96019.91
2023-03-19T08:48:04.541Z,96009.44
2023-03-19T08:49:09.241Z,96016.06
2023-03-19T08:50:11.974Z,96020.91
2023-03-19T08:51:16.699Z,96024.59
2023-03-19T08:52:19.226Z,96018.91
2023-03-19T08:53:23.947Z,96009.94
2023-03-19T08:54:26.072Z,96018.31
2023-03-19T08:55:30.825Z,96017.00
2023-03-19T08:56:32.908Z,96012.78
2023-03-19T08:57:38.409Z,96009.31
2023-03-19T08:58:42.289Z,96012.63
2023-03-19T08:59:47.165Z,96016.75
2023-03-19T09:00:54.467Z,96012.19
2023-03-19T09:01:56.576Z,96023.19
2023-03-19T09:03:01.394Z,96030.03
2023-03-19T09:04:06.469Z,96028.00
2023-03-19T09:05:09.361Z,96019.78
2023-03-19T09:06:15.724Z,96019.09
2023-03-19T09:07:17.832Z,96023.59
2023-03-19T09:08:22.499Z,96024.47
2023-03-19T09:09:24.965Z,96023.88
2023-03-19T09:10:29.635Z,96022.50
2023-03-19T09:11:34.390Z,96025.22
2023-03-19T09:12:36.719Z,96023.22
2023-03-19T09:13:41.411Z,96017.22
2023-03-19T09:14:44.044Z,96025.72
2023-03-19T09:15:48.753Z,96032.56
2023-03-19T09:16:53.772Z,96032.78
2023-03-19T09:17:58.538Z,96024.25
2023-03-19T09:19:00.560Z,96035.97
2023-03-19T09:20:06.175Z,96040.63
2023-03-19T09:21:08.187Z,96027.63
2023-03-19T09:22:12.882Z,96035.56
2023-03-19T09:23:14.930Z,96036.25
2023-03-19T09:24:20.341Z,96036.75
2023-03-19T09:25:22.659Z,96029.81
2023-03-19T09:26:27.399Z,96035.06
2023-03-19T09:27:30.000Z,96028.59
2023-03-19T09:28:34.620Z,96031.16
2023-03-19T09:29:39.625Z,96026.16
2023-03-19T09:30:41.731Z,96032.66
2023-03-19T09:31:46.866Z,96019.50
2023-03-19T09:32:54.134Z,96023.69
2023-03-19T09:33:56.256Z,96020.38
2023-03-19T09:35:01.295Z,96023.47
2023-03-19T09:36:03.534Z,96021.59
2023-03-19T09:37:08.500Z,96022.63
2023-03-19T09:38:10.772Z,96027.66
2023-03-19T09:39:15.498Z,96023.28
2023-03-19T09:40:23.217Z,96024.50
2023-03-19T09:41:35.636Z,96023.03
2023-03-19T09:42:56.111Z,96018.38
2023-03-19T09:44:01.491Z,96021.81
2023-03-19T09:45:06.429Z,96020.88
2023-03-19T09:46:14.544Z,96010.25
2023-03-19T09:47:32.368Z,96013.81
2023-03-19T09:48:53.249Z,96015.81
2023-03-19T09:49:58.070Z,96019.47
2023-03-19T09:51:05.950Z,96011.56
2023-03-19T09:52:23.325Z,96015.84
2023-03-19T09:53:39.888Z,96015.63
2023-03-19T09:54:49.169Z,96008.78
2023-03-19T09:55:54.251Z,96013.84
2023-03-19T09:56:59.111Z,96010.09
2023-03-19T09:58:02.314Z,96020.72
2023-03-19T09:59:07.011Z,96007.88
2023-03-19T10:00:24.515Z,96010.31
2023-03-19T10:01:30.084Z,96021.50
2023-03-19T10:02:43.473Z,96011.59
2023-03-19T10:04:08.003Z,95998.75
2023-03-19T10:05:31.725Z,96001.38
2023-03-19T10:06:41.131Z,95992.91
2023-03-19T10:08:05.511Z,95998.00
2023-03-19T10:09:43.218Z,95993.13
2023-03-19T10:10:52.123Z,95983.09
2023-03-19T10:12:10.256Z,95997.03
2023-03-19T10:13:29.156Z,95992.75
2023-03-19T10:15:04.627Z,95994.06
2023-03-19T10:16:17.519Z,96008.06
2023-03-19T10:17:27.425Z,96003.84
2023-03-19T10:18:35.785Z,96003.97
2023-03-19T10:19:45.860Z,96007.22
2023-03-19T10:20:56.834Z,96006.63
2023-03-19T10:22:03.781Z,96006.06
2023-03-19T10:23:26.801Z,96001.56
2023-03-19T10:24:37.532Z,95988.38
2023-03-19T10:25:42.593Z,95988.50
2023-03-19T10:26:48.686Z,95986.84
2023-03-19T10:27:56.340Z,95984.84
2023-03-19T10:29:08.260Z,95983.13
2023-03-19T10:30:16.008Z,95981.25
2023-03-19T10:31:30.373Z,95984.38
2023-03-19T10:32:44.266Z,95988.06
2023-03-19T10:33:53.201Z,95981.13
2023-03-19T10:35:03.458Z,95981.31
2023-03-19T10:36:10.491Z,95975.63
2023-03-19T10:37:20.700Z,95971.75
2023-03-19T10:38:24.966Z,95982.72
2023-03-19T10:39:30.820Z,95980.47
2023-03-19T10:40:47.504Z,95973.00
2023-03-19T10:42:00.723Z,95975.00
2023-03-19T10:43:15.469Z,95959.31
2023-03-19T10:44:29.361Z,95972.63
2023-03-19T10:45:38.471Z,95975.19
2023-03-19T10:46:43.858Z,95969.63
2023-03-19T10:47:46.209Z,95978.53
2023-03-19T10:48:51.176Z,95973.78
2023-03-19T10:49:56.371Z,95967.59
2023-03-19T10:51:04.794Z,95966.50
2023-03-19T10:52:19.632Z,95962.03
2023-03-19T10:53:34.124Z,95963.94
2023-03-19T10:54:40.724Z,95952.72
2023-03-19T10:55:50.727Z,95951.63
2023-03-19T10:56:59.031Z,95945.63
2023-03-19T10:58:06.475Z,95950.13
2023-03-19T10:59:25.424Z,95942.97
2023-03-19T11:00:32.427Z,95944.28
2023-03-19T11:01:39.012Z,95947.06
2023-03-19T11:02:51.590Z,95945.06
2023-03-19T11:03:57.908Z,95946.22
2023-03-19T11:05:21.975Z,95935.13
2023-03-19T11:06:33.924Z,95946.16
2023-03-19T11:07:37.433Z,95943.69
2023-03-19T11:08:42.222Z,95941.00
2023-03-19T11:09:50.218Z,95938.88
2023-03-19T11:10:52.338Z,95938.16
2023-03-19T11:12:01.992Z,95939.03
2023-03-19T11:13:09.199Z,95933.06
2023-03-19T11:14:16.860Z,95931.75
2023-03-19T11:15:25.080Z,95934.88
2023-03-19T11:16:27.197Z,95929.28
2023-03-19T11:17:41.831Z,95929.09
2023-03-19T11:18:48.562Z,95935.69
2023-03-19T11:19:56.862Z,95939.38
2023-03-19T11:21:02.289Z,95950.72
2023-03-19T11:22:21.146Z,95939.91
2023-03-19T11:23:26.149Z,95942.41
2023-03-19T11:24:28.379Z,95938.97
2023-03-19T11:25:38.116Z,95936.78
2023-03-19T11:26:46.152Z,95932.16
2023-03-19T11:27:58.944Z,95941.50
2023-03-19T11:29:08.017Z,95941.50
2023-03-19T11:30:19.915Z,95937.84
2023-03-19T11:31:29.083Z,95943.41
2023-03-19T11:32:55.138Z,95934.63
2023-03-19T11:34:11.664Z,95932.59
2023-03-19T11:35:18.887Z,95929.13
2023-03-19T11:36:27.929Z,95932.16
2023-03-19T11:37:49.988Z,95927.75
2023-03-19T11:39:18.808Z,95941.16
2023-03-19T11:40:34.288Z,95944.53
2023-03-19T11:41:53.266Z,95929.72
2023-03-19T11:43:17.553Z,95934.38
2023-03-19T11:44:28.553Z,95929.50
2023-03-19T11:45:38.512Z,95929.78
2023-03-19T11:46:54.389Z,95935.34
2023-03-19T11:48:09.339Z,95939.53
2023-03-19T11:49:39.630Z,95942.91
2023-03-19T11:50:50.643Z,95933.97
2023-03-19T11:52:01.012Z,95936.09
2023-03-19T11:53:21.803Z,95927.31
2023-03-19T11:54:35.490Z,95921.09
2023-03-19T11:55:45.530Z,95923.97
2023-03-19T11:56:51.735Z,95921.78
2023-03-19T11:58:07.857Z,95920.22
2023-03-19T11:59:32.552Z,95921.22
2023-03-19T12:00:45.477Z,95919.34
2023-03-19T12:02:19.969Z,95913.22
2023-03-19T12:03:52.692Z,95919.03
2023-03-19T12:05:15.013Z,95913.38
2023-03-19T12:06:31.472Z,95919.16
2023-03-19T12:07:47.643Z,95901.94
2023-03-19T12:09:04.702Z,95904.34
2023-03-19T12:10:30.567Z,95898.44
2023-03-19T12:11:43.034Z,95901.09
2023-03-19T12:12:56.728Z,95895.84
2023-03-19T12:14:23.885Z,95900.81
2023-03-19T12:15:34.420Z,95892.72
2023-03-19T12:16:55.957Z,95902.63
2023-03-19T12:18:11.008Z,95893.59
2023-03-19T12:19:35.117Z,95903.84
2023-03-19T12:20:52.894Z,95900.00
2023-03-19T12:22:09.370Z,95901.94
2023-03-19T12:23:21.633Z,95900.47
2023-03-19T12:24:37.994Z,95897.06
2023-03-19T12:26:04.627Z,95893.97
2023-03-19T12:27:25.128Z,95900.31
2023-03-19T12:28:30.817Z,95893.16
2023-03-19T12:29:43.591Z,95889.91
2023-03-19T12:30:52.989Z,95887.47
2023-03-19T12:32:25.670Z,95884.81
2023-03-19T12:33:38.878Z,95881.41
2023-03-19T12:34:49.316Z,95895.03
2023-03-19T12:35:58.038Z,95893.69
2023-03-19T12:37:14.498Z,95899.84
2023-03-19T12:38:21.690Z,95891.38
2023-03-19T12:39:35.766Z,95883.03
2023-03-19T12:40:42.591Z,95891.94
2023-03-19T12:41:50.132Z,95881.16
2023-03-19T12:42:56.162Z,95882.22
2023-03-19T12:44:06.544Z,95879.88
2023-03-19T12:45:23.380Z,95883.38
2023-03-19T12:46:34.068Z,95877.34
2023-03-19T12:47:40.882Z,95885.13
2023-03-19T12:48:51.345Z,95882.84
2023-03-19T12:49:57.248Z,95885.41
2023-03-19T12:51:09.415Z,95893.34
2023-03-19T12:52:24.093Z,95884.97
2023-03-19T12:53:38.469Z,95882.91
2023-03-19T12:54:48.944Z,95876.66
2023-03-19T12:55:58.086Z,95875.25
2023-03-19T12:57:04.371Z,95877.66
2023-03-19T12:58:15.657Z,95873.75